Time;durP1;ratioP1;P1;durP2;ratioP2;P2;SDS_P1;SDS_P2;PMS_P1;PMS_P2;Temp;Humidity;BMP_temperature;BMP_pressure;BME280_temperature;BME280_humidity;BME280_pressure;Samples;Min_cycle;Max_cycle;Signal;HPM_P1;HPM_P2
2023/06/28 00:00:03;;;;;;;9.00;6.00;;;;;;;20.50;82.58;96736.25;5087780;28;20216;-74
2023/06/28 00:03:24;;;;;;;9.20;6.43;;;;;;;20.13;84.04;96727.31;5085026;28;20256;-76
2023/06/28 00:06:45;;;;;;;6.20;5.40;;;;;;;20.05;84.21;96730.59;5086321;28;20197;-78
2023/06/28 00:10:06;;;;;;;9.87;6.83;;;;;;;20.12;83.19;96723.84;5083942;28;20304;-80
2023/06/28 00:13:42;;;;;;;10.83;6.00;;;;;;;20.28;81.24;96699.66;5087734;28;20246;-74
2023/06/28 00:17:02;;;;;;;8.23;6.23;;;;;;;20.41;81.37;96718.66;5085518;28;20279;-71
2023/06/28 00:20:23;;;;;;;7.70;5.77;;;;;;;20.15;82.51;96709.59;5087138;28;20189;-86
2023/06/28 00:23:44;;;;;;;9.60;5.90;;;;;;;20.11;82.79;96710.84;5084271;28;20311;-74
2023/06/28 00:27:05;;;;;;;8.33;5.37;;;;;;;20.43;81.14;96708.81;5085907;28;20343;-71
2023/06/28 00:30:25;;;;;;;7.57;5.70;;;;;;;20.62;80.20;96708.81;5084994;28;20672;-72
2023/06/28 00:33:47;;;;;;;10.70;6.37;;;;;;;20.83;79.36;96704.22;5085235;28;20246;-79
2023/06/28 00:37:10;;;;;;;7.83;5.60;;;;;;;21.01;77.97;96701.69;5101940;28;20687;-71
2023/06/28 00:40:30;;;;;;;10.57;5.97;;;;;;;21.02;77.67;96706.00;5105842;28;20233;-72
2023/06/28 00:43:52;;;;;;;11.03;6.00;;;;;;;21.00;77.90;96718.44;5106722;28;20302;-69
2023/06/28 00:47:13;;;;;;;7.33;5.63;;;;;;;21.17;77.56;96709.00;5109871;28;20184;-71
2023/06/28 00:50:33;;;;;;;7.30;5.50;;;;;;;21.11;77.52;96709.59;5111229;28;20194;-71
2023/06/28 00:53:16;;;;;;;6.93;5.80;;;;;;;21.08;77.02;96702.81;5109997;28;20747;-71
2023/06/28 00:55:45;;;;;;;8.07;5.70;;;;;;;21.18;76.67;96694.88;5093213;28;20251;-71
2023/06/28 00:58:12;;;;;;;9.60;6.13;;;;;;;21.19;76.23;96699.16;5111336;28;20189;-71
2023/06/28 01:01:19;;;;;;;8.33;5.57;;;;;;;21.08;77.09;96701.00;5109249;28;20662;-71
2023/06/28 01:04:40;;;;;;;7.53;5.50;;;;;;;20.68;77.67;96707.41;5109320;28;20188;-77
2023/06/28 01:07:57;;;;;;;7.87;5.83;;;;;;;20.07;80.68;96701.56;5107593;28;20636;-74
2023/06/28 01:11:18;;;;;;;7.17;5.40;;;;;;;19.92;81.13;96703.75;5094079;28;20262;-71
2023/06/28 01:14:39;;;;;;;7.33;5.90;;;;;;;20.30;79.79;96697.72;5109918;28;20245;-72
2023/06/28 01:18:00;;;;;;;11.10;5.23;;;;;;;20.44;78.86;96699.97;5110637;28;20766;-72
2023/06/28 01:21:21;;;;;;;9.90;5.40;;;;;;;20.42;78.71;96703.69;5108772;28;20656;-72
2023/06/28 01:24:41;;;;;;;9.70;5.77;;;;;;;20.34;78.84;96707.00;5108702;28;20195;-77
2023/06/28 01:28:02;;;;;;;7.83;6.27;;;;;;;19.88;80.34;96704.16;5109422;28;20678;-73
2023/06/28 01:31:24;;;;;;;8.57;5.63;;;;;;;19.78;80.70;96711.19;5107341;28;20188;-71
2023/06/28 01:34:45;;;;;;;7.43;5.87;;;;;;;19.77;81.07;96706.88;5090364;28;20191;-81
2023/06/28 01:38:06;;;;;;;8.33;5.57;;;;;;;19.72;80.91;96694.16;5109728;28;20616;-76
2023/06/28 01:41:27;;;;;;;10.07;5.83;;;;;;;19.70;80.88;96703.16;5096320;28;20691;-73
2023/06/28 01:44:47;;;;;;;9.70;5.60;;;;;;;20.06;80.11;96705.16;5054275;28;20223;-74
2023/06/28 01:48:09;;;;;;;7.23;5.27;;;;;;;20.10;79.64;96711.81;5087354;28;20195;-76
2023/06/28 01:51:30;;;;;;;6.83;5.80;;;;;;;20.00;79.47;96724.94;5086591;28;20200;-83
2023/06/28 01:54:51;;;;;;;10.97;5.93;;;;;;;20.14;79.27;96721.06;5070531;28;20193;-72
2023/06/28 01:58:12;;;;;;;7.77;6.20;;;;;;;20.03;79.28;96714.13;5087936;28;20196;-72
2023/06/28 02:01:34;;;;;;;11.17;6.30;;;;;;;20.13;78.72;96717.63;5087527;28;20189;-70
2023/06/28 02:04:55;;;;;;;8.93;6.00;;;;;;;19.92;79.76;96718.69;5089658;28;20185;-69
2023/06/28 02:08:16;;;;;;;7.27;6.23;;;;;;;19.91;80.02;96727.53;5089291;28;20197;-69
2023/06/28 02:11:36;;;;;;;7.33;5.97;;;;;;;19.95;79.33;96731.56;5086661;28;20185;-68
2023/06/28 02:14:57;;;;;;;10.20;6.03;;;;;;;19.74;79.90;96733.44;5086380;28;20700;-68
2023/06/28 02:18:24;;;;;;;8.63;6.63;;;;;;;19.80;80.24;96722.41;5086101;28;20191;-70
2023/06/28 02:22:05;;;;;;;8.17;6.20;;;;;;;19.64;80.61;96698.44;5087627;28;20660;-70
2023/06/28 02:25:26;;;;;;;7.93;6.57;;;;;;;19.81;79.95;96717.00;5069714;28;20196;-70
2023/06/28 02:28:48;;;;;;;10.00;6.67;;;;;;;19.90;79.79;96720.63;5086547;28;20214;-72
2023/06/28 02:32:09;;;;;;;12.70;6.07;;;;;;;19.94;79.80;96729.91;5085996;28;20196;-70
2023/06/28 02:35:30;;;;;;;12.20;6.67;;;;;;;19.95;80.13;96723.66;5087005;28;20694;-70
2023/06/28 02:38:51;;;;;;;9.53;6.33;;;;;;;19.95;79.46;96727.13;5089352;28;20195;-70
2023/06/28 02:42:12;;;;;;;9.40;6.40;;;;;;;19.70;80.78;96722.34;5088262;28;20245;-70
2023/06/28 02:45:33;;;;;;;13.93;6.40;;;;;;;19.62;81.39;96727.44;5087639;28;20185;-73
2023/06/28 02:48:54;;;;;;;7.33;5.90;;;;;;;19.48;82.00;96719.94;5086652;28;20682;-71
2023/06/28 02:52:15;;;;;;;11.80;6.20;;;;;;;19.19;83.37;96709.28;5070246;28;20196;-69
2023/06/28 02:55:38;;;;;;;9.17;6.07;;;;;;;19.50;82.20;96723.25;5087088;28;20329;-78
2023/06/28 02:59:07;;;;;;;10.27;6.30;;;;;;;19.52;81.79;96717.88;5086558;28;20191;-69
2023/06/28 03:02:31;;;;;;;8.30;6.27;;;;;;;19.64;81.69;96722.09;5085093;28;21135;-70
2023/06/28 03:05:53;;;;;;;12.67;6.80;;;;;;;19.58;81.37;96717.38;5071561;28;20282;-81
2023/06/28 03:09:14;;;;;;;7.50;6.10;;;;;;;19.74;80.74;96726.38;5069545;28;20384;-82
2023/06/28 03:12:34;;;;;;;11.23;6.57;;;;;;;19.49;81.14;96721.59;5089733;28;20236;-82
2023/06/28 03:15:55;;;;;;;11.00;6.60;;;;;;;19.24;82.38;96722.84;5085678;28;20192;-75
2023/06/28 03:19:03;;;;;;;9.27;6.30;;;;;;;19.15;82.93;96723.63;5086870;28;20188;-77
2023/06/28 03:22:24;;;;;;;9.43;6.37;;;;;;;18.95;83.97;96721.03;5086568;28;20304;-74
2023/06/28 03:25:46;;;;;;;12.37;7.20;;;;;;;18.57;85.33;96727.66;5087893;28;20228;-80
2023/06/28 03:29:10;;;;;;;12.70;7.10;;;;;;;18.73;85.09;96727.25;5085675;28;20333;-72
2023/06/28 03:32:33;;;;;;;10.93;6.90;;;;;;;18.63;85.21;96739.44;5098030;28;20204;-79
2023/06/28 03:35:53;;;;;;;13.00;7.03;;;;;;;18.56;84.98;96738.28;5107008;28;20195;-76
2023/06/28 03:39:17;;;;;;;10.73;7.27;;;;;;;18.38;85.55;96735.34;5093096;28;20827;-71
2023/06/28 03:42:38;;;;;;;12.43;6.97;;;;;;;18.49;84.73;96727.47;5105692;28;20225;-72
2023/06/28 03:45:58;;;;;;;11.30;7.70;;;;;;;18.76;83.67;96729.59;5083190;28;20198;-79
2023/06/28 03:49:20;;;;;;;12.60;7.40;;;;;;;19.11;82.43;96737.97;5070860;28;20196;-82
2023/06/28 03:52:41;;;;;;;9.40;7.23;;;;;;;19.15;81.53;96738.53;5101485;28;20712;-81
2023/06/28 03:56:02;;;;;;;11.73;7.17;;;;;;;19.37;79.66;96684.09;5107802;28;20194;-74
2023/06/28 03:59:22;;;;;;;9.20;6.43;;;;;;;20.27;76.48;96719.06;5106860;28;20187;-72
2023/06/28 04:02:43;;;;;;;13.83;7.13;;;;;;;20.76;75.21;96732.06;5106686;28;20607;-72
2023/06/28 04:06:05;;;;;;;10.40;6.13;;;;;;;20.84;74.60;96729.56;5105976;28;20344;-79
2023/06/28 04:09:25;;;;;;;10.70;6.80;;;;;;;21.41;72.62;96733.09;5096977;28;20231;-71
2023/06/28 04:12:46;;;;;;;12.57;7.07;;;;;;;21.14;74.52;96730.38;5095417;28;20290;-71
2023/06/28 04:16:07;;;;;;;11.53;6.70;;;;;;;20.98;74.48;96736.19;5092735;28;20269;-82
2023/06/28 04:19:28;;;;;;;9.93;6.73;;;;;;;21.58;72.58;96732.31;5102278;28;20213;-75
2023/06/28 04:22:49;;;;;;;9.80;6.93;;;;;;;21.34;73.81;96738.09;5105709;28;20230;-76
2023/06/28 04:26:10;;;;;;;9.27;7.17;;;;;;;21.25;74.22;96743.38;5107912;28;20191;-78
2023/06/28 04:29:31;;;;;;;8.00;6.50;;;;;;;21.56;73.53;96739.53;5110415;28;20189;-71
2023/06/28 04:33:04;;;;;;;11.37;7.47;;;;;;;21.93;72.04;96734.28;5104120;28;20198;-71
2023/06/28 04:36:25;;;;;;;11.20;6.87;;;;;;;22.51;69.53;96723.19;5105298;28;20216;-71
2023/06/28 04:39:46;;;;;;;7.87;6.43;;;;;;;22.59;69.60;96738.28;5104648;28;20278;-71
2023/06/28 04:43:10;;;;;;;7.77;6.43;;;;;;;23.04;68.11;96738.19;5106588;28;20714;-77
2023/06/28 04:46:32;;;;;;;9.50;6.93;;;;;;;23.56;66.06;96745.13;5105537;28;20214;-75
2023/06/28 04:49:54;;;;;;;8.97;6.77;;;;;;;23.48;65.38;96733.69;5105685;28;20198;-76
2023/06/28 04:53:15;;;;;;;15.00;6.87;;;;;;;23.63;65.93;96740.88;5104175;28;20177;-82
2023/06/28 04:56:37;;;;;;;10.90;7.13;;;;;;;23.99;63.79;96737.06;5106142;28;20199;-80
2023/06/28 04:59:58;;;;;;;11.00;6.70;;;;;;;24.06;63.56;96735.47;5104350;28;20243;-81
2023/06/28 05:03:18;;;;;;;7.87;6.37;;;;;;;24.23;64.06;96731.88;5104635;28;20237;-81
2023/06/28 05:06:39;;;;;;;8.43;6.63;;;;;;;23.85;64.55;96734.19;5106038;28;20186;-78
2023/06/28 05:10:00;;;;;;;11.77;7.37;;;;;;;23.28;66.16;96727.75;5105985;28;20608;-74
2023/06/28 05:13:21;;;;;;;9.90;6.73;;;;;;;24.03;64.91;96733.13;5107287;28;20661;-79
2023/06/28 05:16:41;;;;;;;7.60;5.87;;;;;;;23.68;65.38;96735.94;5105815;28;20193;-70
2023/06/28 05:20:03;;;;;;;8.03;6.27;;;;;;;23.16;67.01;96729.00;5105897;28;20275;-74
2023/06/28 05:23:27;;;;;;;9.90;6.27;;;;;;;23.34;66.35;96725.38;5105997;28;20255;-76
2023/06/28 05:26:49;;;;;;;10.30;6.23;;;;;;;23.48;66.17;96736.31;5104883;28;20195;-75
2023/06/28 05:30:10;;;;;;;9.03;6.70;;;;;;;23.64;65.58;96741.72;5105133;28;20220;-76
2023/06/28 05:32:51;;;;;;;11.20;7.33;;;;;;;23.91;64.80;96728.25;5108274;28;20307;-80
2023/06/28 05:36:14;;;;;;;11.37;7.20;;;;;;;24.64;61.24;96739.91;5089165;28;20239;-76
2023/06/28 05:39:35;;;;;;;8.37;6.87;;;;;;;24.86;60.94;96748.06;5108120;28;20196;-78
2023/06/28 05:42:03;;;;;;;9.40;6.57;;;;;;;24.94;60.37;96733.97;5108934;28;20311;-75
2023/06/28 05:45:25;;;;;;;9.27;7.30;;;;;;;25.04;60.27;96727.50;5105994;28;20303;-77
2023/06/28 05:48:06;;;;;;;8.97;6.70;;;;;;;25.14;59.34;96745.06;5107600;28;20343;-78
2023/06/28 05:51:14;;;;;;;9.30;6.97;;;;;;;25.34;60.78;96746.38;5107814;28;20720;-72
2023/06/28 05:54:36;;;;;;;9.27;6.80;;;;;;;25.83;58.38;96743.47;5109009;28;20203;-77
2023/06/28 05:57:57;;;;;;;10.70;8.23;;;;;;;25.91;58.36;96739.09;5114814;28;20687;-72
2023/06/28 06:01:01;;;;;;;9.70;7.03;;;;;;;25.75;59.08;96734.69;5114815;28;20247;-74
2023/06/28 06:04:28;;;;;;;11.20;7.03;;;;;;;24.86;60.43;96723.38;5110423;28;20227;-82
2023/06/28 06:07:49;;;;;;;10.43;6.90;;;;;;;25.21;60.59;96709.78;5107380;28;20188;-78
2023/06/28 06:11:10;;;;;;;13.43;7.10;;;;;;;25.42;59.62;96723.34;5106757;28;20837;-74
2023/06/28 06:14:31;;;;;;;8.10;6.80;;;;;;;25.45;60.14;96730.94;5106929;28;20198;-76
2023/06/28 06:17:13;;;;;;;9.17;6.80;;;;;;;25.09;60.28;96732.31;5105368;28;20204;-77
2023/06/28 06:20:35;;;;;;;10.50;7.33;;;;;;;25.78;58.21;96718.44;5107603;28;20215;-72
2023/06/28 06:24:01;;;;;;;9.93;6.70;;;;;;;26.40;56.33;96724.59;5107215;28;20215;-75
2023/06/28 06:26:42;;;;;;;11.30;6.83;;;;;;;25.80;58.18;96717.25;5108828;28;20224;-72
2023/06/28 06:30:04;;;;;;;9.13;7.67;;;;;;;26.48;57.11;96721.94;5104730;28;20243;-72
2023/06/28 06:33:26;;;;;;;10.57;7.13;;;;;;;27.12;54.86;96729.41;5090985;28;20234;-77
2023/06/28 06:36:47;;;;;;;7.53;6.23;;;;;;;26.68;54.48;96727.59;5106751;28;20199;-77
2023/06/28 06:40:10;;;;;;;9.47;6.90;;;;;;;26.28;56.14;96731.31;5091346;28;20198;-73
2023/06/28 06:43:31;;;;;;;8.07;6.53;;;;;;;26.07;56.74;96713.34;5107586;28;20775;-72
2023/06/28 06:46:12;;;;;;;11.00;7.07;;;;;;;26.05;56.80;96725.13;5105913;28;20190;-75
2023/06/28 06:49:33;;;;;;;9.57;6.77;;;;;;;26.34;56.08;96726.13;5105620;28;20743;-76
2023/06/28 06:52:54;;;;;;;10.00;7.50;;;;;;;26.58;55.34;96711.91;5107227;28;20216;-75
2023/06/28 06:56:09;;;;;;;10.60;7.80;;;;;;;26.61;55.18;96719.50;5106942;28;20689;-73
2023/06/28 06:59:31;;;;;;;9.93;6.93;;;;;;;26.65;54.99;96717.31;5105608;28;20261;-77
2023/06/28 07:02:00;;;;;;;8.57;7.67;;;;;;;26.85;54.41;96711.38;5108691;28;20188;-73
2023/06/28 07:04:27;;;;;;;7.80;6.93;;;;;;;26.79;54.52;96717.38;5106006;28;20241;-72
2023/06/28 07:07:37;;;;;;;8.13;7.33;;;;;;;26.88;54.11;96712.84;5106607;28;20199;-71
2023/06/28 07:10:58;;;;;;;10.37;6.87;;;;;;;27.33;53.21;96700.28;5105707;28;20251;-74
2023/06/28 07:14:20;;;;;;;8.63;7.40;;;;;;;27.30;53.59;96708.66;5105670;28;20180;-74
2023/06/28 07:17:41;;;;;;;13.67;7.23;;;;;;;27.84;51.85;96708.41;5103579;28;20204;-72
2023/06/28 07:21:02;;;;;;;15.73;7.50;;;;;;;28.38;50.19;96709.69;5103882;28;20506;-74
2023/06/28 07:24:24;;;;;;;11.90;7.60;;;;;;;28.41;49.31;96700.50;5085654;28;20220;-71
2023/06/28 07:27:45;;;;;;;10.47;6.93;;;;;;;28.25;49.56;96701.56;5085469;28;20204;-74
2023/06/28 07:31:09;;;;;;;10.53;6.50;;;;;;;28.52;47.74;96705.34;5083624;28;20236;-76
2023/06/28 07:34:31;;;;;;;8.40;6.63;;;;;;;28.70;47.12;96711.09;5084004;28;20188;-76
2023/06/28 07:37:53;;;;;;;10.40;8.57;;;;;;;28.83;46.80;96703.22;5087665;28;20204;-72
2023/06/28 07:41:14;;;;;;;10.07;6.67;;;;;;;28.66;47.15;96702.66;5086664;28;20193;-71
2023/06/28 07:44:34;;;;;;;11.77;7.90;;;;;;;28.71;50.50;96704.72;5068365;28;20217;-72
2023/06/28 07:47:57;;;;;;;14.27;9.73;;;;;;;28.14;50.69;96705.53;5090271;28;20549;-72
2023/06/28 07:51:19;;;;;;;11.53;8.07;;;;;;;27.42;52.06;96694.91;5085820;28;20188;-73
2023/06/28 07:54:40;;;;;;;10.73;8.60;;;;;;;27.64;50.34;96705.47;5086140;28;20361;-71
2023/06/28 07:58:01;;;;;;;10.37;7.37;;;;;;;27.80;51.01;96696.47;5086924;28;20342;-70
2023/06/28 08:01:25;;;;;;;8.73;6.80;;;;;;;27.69;49.80;96694.28;5084067;28;20566;-71
2023/06/28 08:04:48;;;;;;;8.87;7.17;;;;;;;28.24;47.55;96691.91;5068675;28;20232;-72
2023/06/28 08:08:09;;;;;;;10.60;7.17;;;;;;;27.91;47.72;96690.66;5086318;28;20562;-74
2023/06/28 08:11:33;;;;;;;8.13;6.20;;;;;;;28.00;47.22;96697.59;5085381;28;20203;-73
2023/06/28 08:14:43;;;;;;;9.43;6.70;;;;;;;28.29;46.50;96708.16;5085014;28;20187;-71
2023/06/28 08:18:12;;;;;;;11.50;6.27;;;;;;;27.69;47.47;96691.63;5070540;28;20195;-71
2023/06/28 08:21:34;;;;;;;10.27;6.90;;;;;;;28.15;46.11;96698.38;5093726;28;20203;-77
2023/06/28 08:24:56;;;;;;;7.67;6.70;;;;;;;27.96;47.12;96690.97;5103289;28;20646;-82
2023/06/28 08:28:17;;;;;;;9.30;7.50;;;;;;;28.60;45.65;96689.25;5106993;28;20195;-70
2023/06/28 08:30:57;;;;;;;10.00;6.13;;;;;;;28.72;45.62;96685.91;5105570;28;20272;-78
2023/06/28 08:33:26;;;;;;;6.70;5.80;;;;;;;28.39;45.27;96684.72;5088577;28;20268;-70
2023/06/28 08:35:56;;;;;;;9.63;6.20;;;;;;;28.72;45.81;96672.56;5106206;28;20192;-76
2023/06/28 08:38:29;;;;;;;6.67;5.77;;;;;;;28.61;46.82;96673.06;5103974;28;20712;-77
2023/06/28 08:40:57;;;;;;;8.60;6.50;;;;;;;28.64;45.52;96662.03;5106333;28;20240;-73
2023/06/28 08:44:04;;;;;;;8.20;6.33;;;;;;;28.92;45.58;96670.88;5104120;28;20642;-70
2023/06/28 08:47:25;;;;;;;8.43;6.23;;;;;;;28.79;45.49;96673.44;5103998;28;20199;-78
2023/06/28 08:50:48;;;;;;;7.77;6.60;;;;;;;28.97;45.33;96668.44;5102549;28;20192;-70
2023/06/28 08:54:09;;;;;;;13.93;11.37;;;;;;;29.20;45.49;96668.28;5091236;28;20196;-75
2023/06/28 08:57:31;;;;;;;6.73;5.93;;;;;;;29.38;45.28;96657.91;5089120;28;20650;-73
2023/06/28 09:00:52;;;;;;;8.47;5.77;;;;;;;29.75;45.32;96664.72;5105342;28;20674;-80
2023/06/28 09:04:13;;;;;;;6.90;5.63;;;;;;;30.20;43.90;96656.06;5106501;28;20234;-74
2023/06/28 09:07:34;;;;;;;6.50;5.37;;;;;;;29.61;44.03;96661.09;5110123;28;20575;-71
2023/06/28 09:10:55;;;;;;;6.93;5.60;;;;;;;29.55;44.80;96663.78;5090386;28;20200;-71
2023/06/28 09:14:16;;;;;;;5.70;5.10;;;;;;;29.65;43.87;96666.91;5109326;28;20191;-77
2023/06/28 09:17:37;;;;;;;8.40;5.90;;;;;;;29.55;45.36;96655.75;5110218;28;20214;-68
2023/06/28 09:20:58;;;;;;;9.60;6.10;;;;;;;28.78;47.06;96661.13;5107130;28;20211;-75
2023/06/28 09:24:19;;;;;;;6.10;5.50;;;;;;;28.43;48.40;96664.66;5108291;28;20542;-70
2023/06/28 09:27:40;;;;;;;6.50;5.80;;;;;;;27.90;49.67;96665.06;5106657;28;20192;-70
2023/06/28 09:30:55;;;;;;;7.53;6.37;;;;;;;27.99;50.32;96656.81;5108468;28;20195;-70
2023/06/28 09:34:02;;;;;;;8.87;6.70;;;;;;;27.66;49.93;96649.38;5108686;28;20242;-72
2023/06/28 09:37:23;;;;;;;7.13;5.90;;;;;;;27.97;49.49;96642.03;5089279;28;20266;-70
2023/06/28 09:40:45;;;;;;;21.80;12.47;;;;;;;28.16;48.51;96639.59;5087855;28;20192;-70
2023/06/28 09:44:10;;;;;;;7.33;6.53;;;;;;;28.30;48.61;96643.22;5086125;28;20216;-72
2023/06/28 09:47:33;;;;;;;6.97;6.10;;;;;;;28.49;48.47;96642.59;5088884;28;20289;-78
2023/06/28 09:50:59;;;;;;;6.10;5.50;;;;;;;28.31;48.17;96634.22;5104091;28;20208;-75
2023/06/28 09:54:26;;;;;;;8.20;6.40;;;;;;;28.34;48.16;96638.34;5088824;28;20196;-72
2023/06/28 09:57:47;;;;;;;7.77;5.80;;;;;;;28.27;48.77;96627.63;5069025;28;20347;-79
2023/06/28 10:01:09;;;;;;;7.70;6.50;;;;;;;28.69;47.42;96627.63;5087844;28;20664;-75
2023/06/28 10:04:30;;;;;;;6.63;5.57;;;;;;;28.52;48.88;96631.53;5104654;28;20330;-74
2023/06/28 10:07:51;;;;;;;7.53;5.90;;;;;;;28.88;46.90;96637.63;5108210;28;20278;-72
2023/06/28 10:11:12;;;;;;;5.70;5.10;;;;;;;28.68;48.53;96626.00;5109206;28;20247;-72
2023/06/28 10:14:33;;;;;;;10.80;6.50;;;;;;;29.14;47.95;96620.19;5108148;28;20211;-75
2023/06/28 10:17:55;;;;;;;12.13;6.27;;;;;;;29.45;47.09;96628.59;5105609;28;20208;-73
2023/06/28 10:21:16;;;;;;;6.97;5.80;;;;;;;29.04;46.86;96612.50;5107062;28;20558;-79
2023/06/28 10:24:37;;;;;;;5.90;4.80;;;;;;;28.89;47.57;96614.47;5107168;28;20211;-78
2023/06/28 10:27:58;;;;;;;7.63;5.30;;;;;;;28.98;47.39;96627.44;5106096;28;20266;-77
2023/06/28 10:31:19;;;;;;;7.80;6.17;;;;;;;29.02;47.40;96621.75;5107834;28;20196;-73
2023/06/28 10:34:42;;;;;;;7.87;5.60;;;;;;;29.48;46.78;96625.53;5109116;28;20202;-74
2023/06/28 10:38:05;;;;;;;6.87;5.70;;;;;;;29.28;47.30;96621.94;5108990;28;20351;-73
2023/06/28 10:41:26;;;;;;;6.40;5.70;;;;;;;29.63;46.63;96612.88;5105744;28;20294;-76
2023/06/28 10:44:46;;;;;;;8.13;5.80;;;;;;;29.66;46.35;96607.97;5107141;28;20246;-78
2023/06/28 10:48:10;;;;;;;9.23;6.47;;;;;;;29.53;47.03;96604.41;5108466;28;20191;-74
2023/06/28 10:50:51;;;;;;;6.63;5.83;;;;;;;29.41;46.54;96601.47;5106436;28;20188;-76
2023/06/28 10:54:01;;;;;;;9.33;6.90;;;;;;;29.42;46.01;96616.47;5107133;28;20667;-80
2023/06/28 10:57:28;;;;;;;6.73;4.90;;;;;;;29.36;46.46;96613.78;5109455;28;20296;-76
2023/06/28 11:00:35;;;;;;;6.20;5.60;;;;;;;28.79;48.35;96614.78;5108891;28;20191;-72
2023/06/28 11:03:41;;;;;;;6.53;5.80;;;;;;;28.80;48.58;96603.13;5107067;28;20219;-76
2023/06/28 11:07:02;;;;;;;7.70;6.63;;;;;;;28.80;48.42;96610.28;5106274;28;20259;-70
2023/06/28 11:10:34;;;;;;;8.37;7.00;;;;;;;29.10;48.81;96625.06;5084943;28;20255;-75
2023/06/28 11:13:42;;;;;;;8.67;5.70;;;;;;;29.03;49.86;96620.69;5085696;28;20314;-71
2023/06/28 11:17:08;;;;;;;8.20;5.90;;;;;;;28.83;51.48;96618.72;5086244;28;20294;-73
2023/06/28 11:20:29;;;;;;;7.67;5.50;;;;;;;28.42;52.77;96635.56;5070649;28;20188;-74
2023/06/28 11:23:57;;;;;;;15.77;11.20;;;;;;;28.20;54.62;96629.38;5084157;28;20308;-70
2023/06/28 11:27:18;;;;;;;8.47;6.27;;;;;;;28.52;53.01;96620.88;5084344;28;20192;-69
2023/06/28 11:30:39;;;;;;;9.20;6.80;;;;;;;28.48;53.31;96627.59;5087492;28;20195;-71
2023/06/28 11:34:09;;;;;;;7.70;6.13;;;;;;;28.76;53.07;96622.34;5085570;28;20249;-72
2023/06/28 11:37:30;;;;;;;7.60;6.43;;;;;;;28.55;52.41;96625.84;5084657;28;20275;-72
2023/06/28 11:40:51;;;;;;;10.67;7.93;;;;;;;28.62;52.25;96624.09;5083774;28;20200;-70
2023/06/28 11:44:13;;;;;;;9.10;7.23;;;;;;;29.02;51.16;96625.22;5087033;28;20311;-74
2023/06/28 11:47:39;;;;;;;9.40;6.63;;;;;;;29.26;50.72;96623.97;5086116;28;20743;-71
2023/06/28 11:51:00;;;;;;;9.03;6.77;;;;;;;29.14;51.64;96625.50;5087340;28;20192;-71
2023/06/28 11:54:25;;;;;;;8.20;6.53;;;;;;;29.09;50.78;96634.09;5086287;28;20186;-71
2023/06/28 11:57:45;;;;;;;8.47;6.13;;;;;;;28.47;48.89;96631.28;5084300;28;20656;-70
2023/06/28 12:01:16;;;;;;;7.37;5.63;;;;;;;28.42;49.13;96625.69;5087039;28;20194;-69
2023/06/28 12:04:40;;;;;;;8.47;5.87;;;;;;;28.36;48.21;96628.31;5086967;28;20241;-70
2023/06/28 12:08:01;;;;;;;7.00;5.63;;;;;;;28.11;48.98;96638.50;5032828;28;20193;-71
2023/06/28 12:11:21;;;;;;;7.47;5.80;;;;;;;27.79;49.39;96622.94;5043010;28;20205;-70
2023/06/28 12:14:48;;;;;;;6.00;5.20;;;;;;;27.62;50.23;96627.66;5051100;28;20595;-71
2023/06/28 12:18:22;;;;;;;9.60;5.53;;;;;;;27.72;49.86;96620.19;5059773;28;20276;-70
2023/06/28 12:22:02;;;;;;;5.67;5.03;;;;;;;27.46;50.61;96635.00;5057806;28;20189;-70
2023/06/28 12:25:23;;;;;;;6.30;5.00;;;;;;;27.08;51.27;96637.72;5058586;28;20657;-74
2023/06/28 12:28:43;;;;;;;5.60;4.93;;;;;;;27.16;49.94;96632.31;5064976;28;20600;-70
2023/06/28 12:32:05;;;;;;;6.73;5.83;;;;;;;27.36;50.33;96627.31;5046525;28;20265;-71
2023/06/28 12:35:30;;;;;;;16.43;5.07;;;;;;;27.25;50.20;96636.53;5044717;28;20190;-77
2023/06/28 12:38:52;;;;;;;5.43;4.57;;;;;;;26.90;51.29;96631.91;5044622;28;20198;-73
2023/06/28 12:42:21;;;;;;;7.33;5.10;;;;;;;26.77;49.70;96617.63;5049689;28;20251;-70
2023/06/28 12:45:43;;;;;;;5.10;4.60;;;;;;;27.02;50.95;96629.63;5066052;28;20189;-72
2023/06/28 12:49:04;;;;;;;5.37;4.57;;;;;;;27.14;50.98;96630.88;5033940;28;20213;-71
2023/06/28 12:52:27;;;;;;;5.47;4.60;;;;;;;27.15;49.60;96622.69;5067406;28;20221;-75
2023/06/28 12:55:48;;;;;;;6.43;4.43;;;;;;;26.80;50.81;96639.31;5066987;28;20579;-70
2023/06/28 12:59:09;;;;;;;5.97;4.30;;;;;;;26.40;51.61;96639.63;5065030;28;20196;-71
2023/06/28 13:02:30;;;;;;;9.33;4.47;;;;;;;26.54;50.97;96641.53;5049130;28;20216;-71
2023/06/28 13:05:51;;;;;;;8.83;4.93;;;;;;;26.28;51.32;96644.53;5050328;28;20742;-73
2023/06/28 13:09:12;;;;;;;5.63;3.90;;;;;;;26.46;51.64;96644.25;5049546;28;20228;-72
2023/06/28 13:12:33;;;;;;;6.27;3.87;;;;;;;26.29;52.07;96653.31;5066142;28;20181;-72
2023/06/28 13:15:54;;;;;;;5.90;4.07;;;;;;;26.23;52.87;96643.41;5046143;28;20249;-83
2023/06/28 13:19:15;;;;;;;6.73;3.90;;;;;;;26.20;51.84;96643.75;5049513;28;20198;-75
2023/06/28 13:22:35;;;;;;;5.40;4.10;;;;;;;26.03;51.99;96647.50;5050533;28;20216;-74
2023/06/28 13:25:58;;;;;;;5.67;4.00;;;;;;;25.75;53.51;96645.31;5049751;28;20207;-72
2023/06/28 13:29:19;;;;;;;9.00;3.70;;;;;;;25.68;53.37;96644.34;5048966;28;20200;-70
2023/06/28 13:32:43;;;;;;;7.07;4.17;;;;;;;25.37;52.85;96635.50;5049365;28;20251;-70
2023/06/28 13:36:05;;;;;;;5.27;4.00;;;;;;;25.72;52.29;96640.34;5048516;28;20676;-70
2023/06/28 13:39:26;;;;;;;5.97;4.17;;;;;;;25.41;52.55;96641.31;5032929;28;20388;-68
2023/06/28 13:42:47;;;;;;;5.93;3.67;;;;;;;26.00;52.31;96626.59;5048344;28;20193;-72
2023/06/28 13:45:29;;;;;;;8.47;3.73;;;;;;;26.16;50.07;96621.22;5048965;28;20213;-83
2023/06/28 13:48:08;;;;;;;7.17;3.80;;;;;;;25.54;51.17;96642.44;5059529;28;20272;-73
2023/06/28 13:50:37;;;;;;;4.97;3.10;;;;;;;25.20;52.44;96628.59;5084309;28;20676;-81
2023/06/28 13:53:05;;;;;;;6.17;3.27;;;;;;;25.72;52.01;96632.38;5066937;28;20598;-82
2023/06/28 13:55:33;;;;;;;6.27;3.67;;;;;;;25.24;51.97;96619.31;5069396;28;20272;-83
2023/06/28 13:58:00;;;;;;;9.37;4.00;;;;;;;25.43;51.30;96624.22;5071675;28;20193;-81
2023/06/28 14:00:27;;;;;;;7.73;4.00;;;;;;;25.56;51.61;96626.34;5069957;28;20241;-80
2023/06/28 14:02:57;;;;;;;4.27;3.83;;;;;;;25.88;51.67;96631.50;5082857;28;20228;-80
2023/06/28 14:05:24;;;;;;;5.73;3.90;;;;;;;25.65;51.77;96610.22;5051797;28;20645;-81
2023/06/28 14:07:52;;;;;;;5.13;4.30;;;;;;;26.40;50.61;96621.84;5073965;28;20224;-81
2023/06/28 14:10:19;;;;;;;7.83;3.87;;;;;;;26.04;50.61;96617.28;5092441;28;20191;-80
2023/06/28 14:12:46;;;;;;;6.23;3.93;;;;;;;26.28;50.37;96609.19;5089420;28;20664;-77
2023/06/28 14:15:13;;;;;;;6.93;4.00;;;;;;;26.71;50.66;96603.16;5086523;28;20203;-75
2023/06/28 14:17:40;;;;;;;9.93;4.23;;;;;;;26.38;50.46;96605.28;5089815;28;20214;-74
2023/06/28 14:20:09;;;;;;;4.40;3.70;;;;;;;26.27;51.61;96596.91;5091947;28;20189;-79
2023/06/28 14:22:42;;;;;;;6.87;4.50;;;;;;;26.30;51.38;96599.19;5091843;28;20208;-79
2023/06/28 14:25:09;;;;;;;5.77;4.27;;;;;;;26.27;51.75;96597.75;5092059;28;20218;-75
2023/06/28 14:27:37;;;;;;;6.43;4.67;;;;;;;26.24;51.99;96594.59;5090377;28;20193;-76
2023/06/28 14:30:05;;;;;;;5.30;4.73;;;;;;;26.21;51.93;96610.91;5089182;28;20188;-72
2023/06/28 14:32:33;;;;;;;5.03;4.03;;;;;;;26.17;52.03;96606.94;5089597;28;20195;-74
2023/06/28 14:35:00;;;;;;;5.80;3.93;;;;;;;26.04;51.61;96611.97;5071787;28;20207;-78
2023/06/28 14:37:31;;;;;;;6.63;4.27;;;;;;;25.52;53.08;96615.25;5091450;28;20198;-79
2023/06/28 14:39:58;;;;;;;4.90;4.10;;;;;;;25.34;52.43;96609.34;5089278;28;20180;-79
2023/06/28 14:43:05;;;;;;;5.60;3.90;;;;;;;25.22;52.94;96609.88;5087458;28;20202;-81
2023/06/28 14:46:26;;;;;;;7.90;4.00;;;;;;;25.37;52.07;96624.06;5086858;28;20244;-83
2023/06/28 14:49:47;;;;;;;4.93;3.97;;;;;;;24.81;52.54;96623.19;5098662;28;20325;-77
2023/06/28 14:53:09;;;;;;;8.57;4.60;;;;;;;24.32;54.60;96610.16;5105588;28;20190;-83
2023/06/28 14:56:30;;;;;;;8.07;4.97;;;;;;;24.98;53.36;96626.66;5108183;28;20197;-84
2023/06/28 14:59:51;;;;;;;8.10;4.90;;;;;;;25.29;52.37;96632.88;5106969;28;20566;-77
2023/06/28 15:03:12;;;;;;;9.13;4.00;;;;;;;25.24;51.73;96640.53;5105334;28;20246;-76
2023/06/28 15:06:33;;;;;;;6.87;4.27;;;;;;;24.97;51.71;96627.66;5108815;28;20195;-83
2023/06/28 15:09:54;;;;;;;5.33;3.97;;;;;;;24.67;52.84;96647.69;5109009;28;20230;-71